Etusivu
METAR-TAF:

METAR-TAF

Lentoasemat :

Linköpingin lentoasema

Linköping, Ruotsi

Leveyspiiri: 58-24N, Pituuspiiri: 015-41E, korkeus merenpinnasta: 52 m

Tämänhetkinen sää

Tämä raportti tehtiin 18 minuuttia sitten, kello 12.50 UTC
Tuuli 11 kn lännestä
Lämpötila 14°C
Kosteus 55%
Ilmanpaine 1001 hPa
Näkyvyys 10 km tai enemmän

METAR: ESSL 231250Z AUTO 27011KT 9999 FEW042/// SCT086/// 14/05 Q1001

Aika: 15:08 (13:08 UTC)

Sääennuste

Tämä raportti tehtiin 38 minuuttia sitten, kello 12.30 UTC
Ennuste voimassa 23. päivästä klo 13 UTC - 23. päivään klo 17 UTC
Tuuli 12 kn lännestä
Näkyvyys 10 km tai enemmän
Hajanaisia pilviä 4500 ft:n korkeudessa

TAF: ESSL 231230Z 2313/2317 28012KT 9999 SCT045

Säähavainnot ja -ennusteet yli 4000 lentoasemalta (METAR- ja TAF-raportit).

Käytössä olevat sääasemat on merkitty karttaan keltaisilla ja punaisilla pisteillä.

Aseta hiiri pisteen päälle nähdäksesi sääaseman nimen.

Klikkaa sitten nähdäksesi säähavainnot ja -ennusteet.

Kartan vaihtaminen: klikkaa mustalla rastilla varustettuja vihreitä pisteitä, niin voit zoomata sisään; viivalla varustettua vihreää pistettä, niin voit zoomata ulos tai vihreitä nuolia, niin pääset viereisille kartoille.


METAR-TAF: